Time;durP1;ratioP1;P1;durP2;ratioP2;P2;SDS_P1;SDS_P2;PMS_P1;PMS_P2;Temp;Humidity;BMP_temperature;BMP_pressure;BME280_temperature;BME280_humidity;BME280_pressure;Samples;Min_cycle;Max_cycle;Signal;HPM_P1;HPM_P2
2022/12/23 00:00:20;;;;;;;225.93;51.70;;;;;;;;;;5053331;28;20210;-74
2022/12/23 00:02:46;;;;;;;124.65;47.80;;;;;;;;;;5052615;28;20056;-74
2022/12/23 00:05:12;;;;;;;231.13;52.15;;;;;;;;;;5052702;28;20502;-74
2022/12/23 00:07:38;;;;;;;189.93;49.22;;;;;;;;;;5051980;28;20061;-74
2022/12/23 00:10:05;;;;;;;205.75;48.63;;;;;;;;;;5052184;28;20438;-74
2022/12/23 00:15:15;;;;;;;622.05;58.42;;;;;;;;;;5051114;28;20564;-74
2022/12/23 00:17:45;;;;;;;290.60;48.45;;;;;;;;;;5052023;28;20051;-74
2022/12/23 00:20:12;;;;;;;154.38;45.63;;;;;;;;;;5052078;28;20495;-74
2022/12/23 00:25:39;;;;;;;403.10;53.42;;;;;;;;;;5052120;28;20049;-74
2022/12/23 00:28:06;;;;;;;226.00;47.13;;;;;;;;;;5051449;28;20409;-75
2022/12/23 00:30:32;;;;;;;175.18;48.03;;;;;;;;;;5051086;28;20041;-75
2022/12/23 00:32:58;;;;;;;232.57;49.65;;;;;;;;;;5051415;28;20155;-74
2022/12/23 00:35:24;;;;;;;143.15;46.53;;;;;;;;;;5048732;28;20044;-75
2022/12/23 00:37:50;;;;;;;300.92;52.55;;;;;;;;;;5034408;28;20047;-74
2022/12/23 00:43:00;;;;;;;224.90;49.28;;;;;;;;;;5050766;28;20490;-74
2022/12/23 00:45:26;;;;;;;398.35;54.33;;;;;;;;;;5051226;28;20041;-74
2022/12/23 00:50:38;;;;;;;597.75;55.97;;;;;;;;;;5052012;28;20049;-74
2022/12/23 00:53:05;;;;;;;280.25;49.58;;;;;;;;;;5051609;28;20047;-74
2022/12/23 00:55:31;;;;;;;505.17;53.92;;;;;;;;;;5045153;28;20063;-74
2022/12/23 00:57:57;;;;;;;610.60;58.75;;;;;;;;;;5051188;28;20041;-74
2022/12/23 01:05:35;;;;;;;305.38;52.60;;;;;;;;;;5050951;28;20415;-74
2022/12/23 01:05:59;;;;;;;520.20;55.05;;;;;;;;;;5034025;28;20052;-74
2022/12/23 01:08:25;;;;;;;343.23;51.00;;;;;;;;;;5051889;28;20059;-74
2022/12/23 01:10:51;;;;;;;225.55;48.25;;;;;;;;;;5051711;28;20134;-74
2022/12/23 01:13:17;;;;;;;121.57;45.60;;;;;;;;;;5050599;28;20056;-74
2022/12/23 01:15:43;;;;;;;188.45;46.97;;;;;;;;;;5050781;28;20533;-75
2022/12/23 01:18:09;;;;;;;161.30;48.65;;;;;;;;;;5050797;28;20068;-74
2022/12/23 01:20:39;;;;;;;131.50;45.22;;;;;;;;;;5052730;28;20052;-74
2022/12/23 01:23:05;;;;;;;308.70;47.70;;;;;;;;;;5043684;28;20054;-74
2022/12/23 01:25:31;;;;;;;191.10;47.60;;;;;;;;;;5046322;28;20046;-74
2022/12/23 01:27:57;;;;;;;193.68;48.72;;;;;;;;;;5051798;28;20049;-74
2022/12/23 01:30:23;;;;;;;216.13;48.55;;;;;;;;;;5052221;28;20045;-74
2022/12/23 01:32:50;;;;;;;208.65;49.42;;;;;;;;;;5050280;28;20040;-74
2022/12/23 01:35:16;;;;;;;171.23;49.22;;;;;;;;;;5042291;28;20049;-74
2022/12/23 01:37:42;;;;;;;197.65;48.05;;;;;;;;;;5045749;28;20545;-74
2022/12/23 01:40:08;;;;;;;290.60;51.38;;;;;;;;;;5051545;28;20424;-74
2022/12/23 01:42:44;;;;;;;184.07;48.63;;;;;;;;;;5049659;28;20468;-74
2022/12/23 01:45:13;;;;;;;392.80;53.97;;;;;;;;;;5048446;28;20131;-74
2022/12/23 01:47:48;;;;;;;318.30;50.67;;;;;;;;;;5051564;28;20056;-74
2022/12/23 01:50:14;;;;;;;401.77;52.17;;;;;;;;;;5050915;28;20045;-74
2022/12/23 01:53:00;;;;;;;504.17;56.15;;;;;;;;;;5051514;28;20519;-74
2022/12/23 01:55:28;;;;;;;286.08;49.65;;;;;;;;;;5017057;28;20049;-74
2022/12/23 01:57:56;;;;;;;337.73;50.53;;;;;;;;;;5050158;28;20071;-74
2022/12/23 02:05:52;;;;;;;511.00;56.22;;;;;;;;;;5033459;28;20049;-74
2022/12/23 02:11:12;;;;;;;170.50;45.45;;;;;;;;;;5035748;28;20049;-74
2022/12/23 02:16:39;;;;;;;366.88;52.72;;;;;;;;;;5054014;28;20494;-74
2022/12/23 02:19:05;;;;;;;160.97;44.07;;;;;;;;;;5036863;28;20049;-74
2022/12/23 02:21:31;;;;;;;230.07;49.75;;;;;;;;;;5053699;28;20801;-74
2022/12/23 02:24:16;;;;;;;281.70;48.75;;;;;;;;;;5053359;28;20062;-74
2022/12/23 02:26:51;;;;;;;253.57;48.65;;;;;;;;;;5055143;28;20438;-74
2022/12/23 02:29:36;;;;;;;286.00;49.72;;;;;;;;;;5054661;28;20044;-74
2022/12/23 02:32:07;;;;;;;154.73;46.70;;;;;;;;;;5053512;28;20044;-74
2022/12/23 02:34:42;;;;;;;237.52;47.63;;;;;;;;;;5052943;28;20044;-74
2022/12/23 02:37:18;;;;;;;210.27;44.90;;;;;;;;;;5053998;28;20045;-74
2022/12/23 02:39:44;;;;;;;315.67;48.83;;;;;;;;;;5054273;28;20495;-74
2022/12/23 02:42:13;;;;;;;329.20;51.08;;;;;;;;;;5051216;28;20041;-74
2022/12/23 02:44:40;;;;;;;146.50;44.28;;;;;;;;;;5052900;28;20052;-74
2022/12/23 02:47:19;;;;;;;135.82;43.00;;;;;;;;;;5051118;28;20053;-74
2022/12/23 02:49:48;;;;;;;240.02;46.13;;;;;;;;;;5052065;28;20055;-74
2022/12/23 02:52:16;;;;;;;222.82;45.90;;;;;;;;;;5037675;28;20483;-74
2022/12/23 02:54:45;;;;;;;200.68;45.17;;;;;;;;;;5054170;28;20045;-74
2022/12/23 02:57:12;;;;;;;246.32;43.95;;;;;;;;;;5054046;28;20049;-74
2022/12/23 02:59:45;;;;;;;172.27;40.83;;;;;;;;;;5053933;28;20491;-74
2022/12/23 03:02:11;;;;;;;195.80;42.60;;;;;;;;;;5052939;28;20420;-74
2022/12/23 03:04:39;;;;;;;140.85;39.65;;;;;;;;;;5035044;28;20041;-74
2022/12/23 03:07:05;;;;;;;125.38;39.97;;;;;;;;;;5053814;28;20106;-74
2022/12/23 03:09:34;;;;;;;113.35;38.08;;;;;;;;;;5053729;28;20479;-74
2022/12/23 03:12:19;;;;;;;182.90;41.53;;;;;;;;;;5052640;28;20037;-74
2022/12/23 03:15:04;;;;;;;126.22;37.53;;;;;;;;;;5039374;28;20071;-74
2022/12/23 03:17:48;;;;;;;124.85;39.45;;;;;;;;;;5052888;28;20048;-74
2022/12/23 03:20:14;;;;;;;187.85;43.88;;;;;;;;;;5044853;28;20052;-74
2022/12/23 03:22:48;;;;;;;109.30;39.42;;;;;;;;;;5037554;28;20084;-74
2022/12/23 03:25:17;;;;;;;157.82;41.22;;;;;;;;;;5052582;28;20399;-74
2022/12/23 03:27:47;;;;;;;150.93;40.60;;;;;;;;;;5054370;28;20048;-74
2022/12/23 03:30:14;;;;;;;133.23;40.03;;;;;;;;;;5035682;28;20114;-74
2022/12/23 03:32:46;;;;;;;150.82;42.30;;;;;;;;;;5052270;28;20045;-74
2022/12/23 03:35:15;;;;;;;167.13;40.83;;;;;;;;;;5047547;28;20072;-74
2022/12/23 03:37:43;;;;;;;201.07;41.85;;;;;;;;;;5044451;28;20045;-74
2022/12/23 03:40:10;;;;;;;233.38;42.15;;;;;;;;;;5052236;28;20056;-74
2022/12/23 03:42:38;;;;;;;131.25;39.72;;;;;;;;;;5051698;28;20399;-74
2022/12/23 03:45:08;;;;;;;189.30;41.45;;;;;;;;;;5053475;28;20508;-74
2022/12/23 03:47:37;;;;;;;157.90;38.63;;;;;;;;;;5051723;28;20047;-75
2022/12/23 03:50:05;;;;;;;214.85;41.65;;;;;;;;;;5044487;28;20311;-74
2022/12/23 03:52:35;;;;;;;121.82;37.55;;;;;;;;;;5051514;28;20056;-74
2022/12/23 03:55:04;;;;;;;159.63;39.70;;;;;;;;;;5033491;28;20403;-74
2022/12/23 03:57:53;;;;;;;167.15;40.60;;;;;;;;;;5049906;28;20090;-74
2022/12/23 04:00:19;;;;;;;258.08;43.05;;;;;;;;;;5052806;28;20041;-74
2022/12/23 04:02:51;;;;;;;164.15;41.15;;;;;;;;;;5052842;28;20531;-74
2022/12/23 04:05:23;;;;;;;260.70;44.25;;;;;;;;;;5052991;28;20045;-74
2022/12/23 04:07:52;;;;;;;161.88;39.65;;;;;;;;;;5053488;28;20094;-74
2022/12/23 04:10:20;;;;;;;194.00;42.72;;;;;;;;;;5035759;28;20505;-74
2022/12/23 04:12:46;;;;;;;207.95;42.60;;;;;;;;;;5052591;28;20044;-74
2022/12/23 04:15:12;;;;;;;166.80;41.83;;;;;;;;;;5053218;28;20072;-74
2022/12/23 04:17:38;;;;;;;309.50;43.95;;;;;;;;;;5051749;28;20052;-74
2022/12/23 04:20:05;;;;;;;221.50;42.78;;;;;;;;;;5053350;28;20055;-74
2022/12/23 04:22:31;;;;;;;145.20;37.63;;;;;;;;;;5053244;28;20041;-74
2022/12/23 04:24:57;;;;;;;140.80;39.47;;;;;;;;;;5051122;28;20098;-74
2022/12/23 04:27:23;;;;;;;277.55;43.40;;;;;;;;;;5052413;28;20044;-74
2022/12/23 04:29:49;;;;;;;244.18;41.78;;;;;;;;;;5051241;28;20046;-74
2022/12/23 04:32:15;;;;;;;172.32;39.60;;;;;;;;;;5051538;28;20049;-74
2022/12/23 04:34:41;;;;;;;166.85;37.80;;;;;;;;;;5051343;28;20040;-74
2022/12/23 04:37:07;;;;;;;289.98;40.92;;;;;;;;;;5049172;28;20090;-74
2022/12/23 04:39:33;;;;;;;165.15;38.95;;;;;;;;;;5051870;28;20040;-74
2022/12/23 04:41:59;;;;;;;174.65;37.90;;;;;;;;;;5051153;28;20052;-74
2022/12/23 04:44:25;;;;;;;141.80;35.75;;;;;;;;;;5050452;28;20098;-74
2022/12/23 04:46:51;;;;;;;224.50;37.58;;;;;;;;;;5050928;28;20056;-74
2022/12/23 04:49:18;;;;;;;269.67;37.97;;;;;;;;;;5051664;28;20045;-74
2022/12/23 04:51:44;;;;;;;190.07;35.63;;;;;;;;;;5049974;28;20037;-74
2022/12/23 04:54:10;;;;;;;179.57;36.53;;;;;;;;;;5049660;28;20045;-74
2022/12/23 04:56:36;;;;;;;228.32;36.42;;;;;;;;;;5033600;28;20052;-74
2022/12/23 04:59:03;;;;;;;138.38;34.80;;;;;;;;;;5050775;28;20399;-74
2022/12/23 05:01:29;;;;;;;134.52;33.15;;;;;;;;;;5050179;28;20092;-74
2022/12/23 05:03:55;;;;;;;173.48;34.55;;;;;;;;;;5051616;28;20521;-74
2022/12/23 05:06:21;;;;;;;107.78;32.92;;;;;;;;;;5051430;28;20037;-74
2022/12/23 05:08:47;;;;;;;235.85;37.35;;;;;;;;;;5051731;28;20055;-74
2022/12/23 05:11:13;;;;;;;151.52;34.22;;;;;;;;;;5051120;28;20045;-74
2022/12/23 05:13:39;;;;;;;191.85;35.97;;;;;;;;;;5050216;28;20091;-74
2022/12/23 05:16:05;;;;;;;145.20;33.50;;;;;;;;;;5051016;28;20063;-74
2022/12/23 05:18:31;;;;;;;281.48;38.53;;;;;;;;;;5049353;28;20048;-74
2022/12/23 05:20:57;;;;;;;131.40;33.67;;;;;;;;;;5050691;28;20055;-74
2022/12/23 05:23:23;;;;;;;126.93;33.25;;;;;;;;;;5051521;28;20041;-74
2022/12/23 05:25:51;;;;;;;248.50;35.58;;;;;;;;;;5049539;28;20052;-74
2022/12/23 05:28:17;;;;;;;306.77;35.60;;;;;;;;;;5051939;28;20045;-74
2022/12/23 05:30:43;;;;;;;158.27;34.40;;;;;;;;;;5051070;28;20045;-74
2022/12/23 05:33:10;;;;;;;144.57;33.33;;;;;;;;;;5051484;28;20106;-74
2022/12/23 05:35:36;;;;;;;146.70;32.22;;;;;;;;;;5046301;28;20458;-74
2022/12/23 05:38:02;;;;;;;238.68;33.55;;;;;;;;;;5049483;28;20052;-74
2022/12/23 05:40:29;;;;;;;154.30;31.13;;;;;;;;;;5051307;28;20083;-74
2022/12/23 05:42:55;;;;;;;273.73;34.30;;;;;;;;;;5050937;28;20057;-74
2022/12/23 05:45:21;;;;;;;209.38;32.63;;;;;;;;;;5053999;28;20483;-74
2022/12/23 05:47:47;;;;;;;105.97;29.25;;;;;;;;;;5055300;28;20411;-74
2022/12/23 05:50:13;;;;;;;131.07;28.70;;;;;;;;;;5054913;28;20048;-74
2022/12/23 05:52:39;;;;;;;190.63;30.90;;;;;;;;;;5045884;28;20041;-74
2022/12/23 05:55:06;;;;;;;131.70;26.67;;;;;;;;;;5048239;28;20053;-74
2022/12/23 05:57:32;;;;;;;129.10;27.80;;;;;;;;;;5055787;28;20041;-74
2022/12/23 05:59:58;;;;;;;205.35;28.48;;;;;;;;;;5054234;28;20151;-74
2022/12/23 06:02:24;;;;;;;221.80;29.05;;;;;;;;;;5055313;28;20056;-74
2022/12/23 06:04:50;;;;;;;281.05;28.35;;;;;;;;;;5055791;28;20049;-74
2022/12/23 06:07:16;;;;;;;102.10;26.77;;;;;;;;;;5054548;28;20384;-74
2022/12/23 06:09:42;;;;;;;299.75;28.98;;;;;;;;;;5051027;28;20045;-74
2022/12/23 06:12:08;;;;;;;271.95;27.85;;;;;;;;;;5053258;28;20037;-74
2022/12/23 06:14:34;;;;;;;91.90;24.27;;;;;;;;;;5055492;28;20099;-74
2022/12/23 06:17:00;;;;;;;194.80;26.08;;;;;;;;;;5054848;28;20419;-74
2022/12/23 06:19:26;;;;;;;297.73;26.60;;;;;;;;;;5043165;28;20037;-74
2022/12/23 06:21:52;;;;;;;222.63;25.67;;;;;;;;;;5034675;28;20049;-74
2022/12/23 06:24:18;;;;;;;297.42;27.23;;;;;;;;;;5035725;28;20103;-74
2022/12/23 06:26:44;;;;;;;380.50;27.73;;;;;;;;;;5043727;28;20037;-74
2022/12/23 06:29:11;;;;;;;546.25;31.30;;;;;;;;;;5049049;28;20037;-74
2022/12/23 06:31:37;;;;;;;410.58;28.65;;;;;;;;;;5053560;28;20049;-74
2022/12/23 06:34:03;;;;;;;704.38;32.55;;;;;;;;;;5046061;28;20047;-74
2022/12/23 06:36:29;;;;;;;338.92;26.20;;;;;;;;;;5051442;28;20068;-74
2022/12/23 06:38:55;;;;;;;434.13;28.67;;;;;;;;;;5046631;28;20064;-74
2022/12/23 06:41:21;;;;;;;500.92;30.38;;;;;;;;;;5050300;28;20048;-74
2022/12/23 06:43:47;;;;;;;578.38;32.40;;;;;;;;;;5045687;28;20045;-74
2022/12/23 06:46:13;;;;;;;400.83;28.23;;;;;;;;;;5044108;28;20094;-74
2022/12/23 06:48:39;;;;;;;516.05;31.92;;;;;;;;;;5052973;28;20041;-74
2022/12/23 06:51:05;;;;;;;283.92;29.08;;;;;;;;;;5052929;28;20114;-74
2022/12/23 06:53:31;;;;;;;463.88;33.58;;;;;;;;;;5054547;28;20045;-73
2022/12/23 06:56:00;;;;;;;474.00;32.80;;;;;;;;;;5049500;28;20038;-73
2022/12/23 06:58:26;;;;;;;322.48;28.80;;;;;;;;;;5048027;28;20044;-74
2022/12/23 07:00:53;;;;;;;421.85;33.67;;;;;;;;;;5054752;28;20079;-74
2022/12/23 07:03:19;;;;;;;313.38;32.60;;;;;;;;;;5050885;28;20061;-74
2022/12/23 07:05:51;;;;;;;409.40;35.25;;;;;;;;;;5051205;28;20045;-74
2022/12/23 07:08:17;;;;;;;188.30;31.85;;;;;;;;;;5053989;28;20071;-74
2022/12/23 07:10:43;;;;;;;251.38;31.58;;;;;;;;;;5054601;28;20048;-74
2022/12/23 07:13:10;;;;;;;109.07;28.95;;;;;;;;;;5049577;28;20064;-74
2022/12/23 07:15:37;;;;;;;132.43;28.02;;;;;;;;;;5054288;28;20112;-74
2022/12/23 07:18:03;;;;;;;347.00;30.33;;;;;;;;;;5035750;28;20052;-74
2022/12/23 07:20:29;;;;;;;465.83;33.90;;;;;;;;;;5052795;28;20055;-74
2022/12/23 07:22:56;;;;;;;711.47;35.53;;;;;;;;;;5053063;28;20049;-74
2022/12/23 07:25:22;;;;;;;476.63;30.10;;;;;;;;;;5051893;28;20044;-74
2022/12/23 07:27:52;;;;;;;177.40;28.35;;;;;;;;;;5041551;28;20429;-74
2022/12/23 07:30:18;;;;;;;299.95;30.25;;;;;;;;;;5053443;28;20048;-74
2022/12/23 07:32:47;;;;;;;282.60;31.30;;;;;;;;;;5035014;28;20499;-74
2022/12/23 07:35:13;;;;;;;445.55;33.65;;;;;;;;;;5033947;28;20049;-72
2022/12/23 07:37:39;;;;;;;474.33;34.15;;;;;;;;;;5050254;28;20048;-72
2022/12/23 07:40:05;;;;;;;456.20;32.05;;;;;;;;;;5048679;28;20052;-72
2022/12/23 07:42:31;;;;;;;262.92;27.27;;;;;;;;;;5052036;28;20036;-72
2022/12/23 07:44:58;;;;;;;325.55;29.20;;;;;;;;;;5037809;28;20087;-72
2022/12/23 07:47:24;;;;;;;391.80;29.75;;;;;;;;;;5050900;28;20053;-72
2022/12/23 07:49:50;;;;;;;447.45;32.35;;;;;;;;;;5050262;28;20561;-72
2022/12/23 07:52:16;;;;;;;472.05;32.97;;;;;;;;;;5051308;28;20556;-72
2022/12/23 07:54:42;;;;;;;428.63;30.02;;;;;;;;;;5051932;28;20041;-72
2022/12/23 07:57:08;;;;;;;171.52;24.48;;;;;;;;;;5051214;28;20045;-72
2022/12/23 07:59:34;;;;;;;491.92;28.33;;;;;;;;;;5052161;28;20132;-72
2022/12/23 08:02:00;;;;;;;290.48;23.58;;;;;;;;;;5051177;28;20138;-72
2022/12/23 08:04:27;;;;;;;123.07;20.73;;;;;;;;;;5051949;28;20048;-72
2022/12/23 08:06:53;;;;;;;404.77;25.77;;;;;;;;;;5051951;28;20048;-74
2022/12/23 08:09:19;;;;;;;516.67;29.40;;;;;;;;;;5048067;28;20053;-72
2022/12/23 08:11:45;;;;;;;426.98;25.80;;;;;;;;;;5049100;28;20071;-72
2022/12/23 08:14:11;;;;;;;504.58;28.25;;;;;;;;;;5051476;28;20060;-72
2022/12/23 08:16:37;;;;;;;594.83;29.48;;;;;;;;;;5052724;28;20048;-72
2022/12/23 08:19:03;;;;;;;441.00;24.63;;;;;;;;;;5052328;28;20055;-72
2022/12/23 08:21:29;;;;;;;403.95;25.48;;;;;;;;;;5047527;28;20495;-73
2022/12/23 08:23:55;;;;;;;142.77;21.25;;;;;;;;;;5048246;28;20406;-72
2022/12/23 08:26:23;;;;;;;231.20;22.85;;;;;;;;;;5041237;28;20376;-72
2022/12/23 08:28:52;;;;;;;255.13;23.35;;;;;;;;;;5046965;28;20566;-72
2022/12/23 08:31:25;;;;;;;273.38;32.83;;;;;;;;;;5050465;28;20123;-72
2022/12/23 08:33:53;;;;;;;269.58;35.35;;;;;;;;;;5049806;28;20049;-72
2022/12/23 08:36:21;;;;;;;144.07;26.13;;;;;;;;;;5050494;28;20052;-72
2022/12/23 08:38:47;;;;;;;227.60;24.48;;;;;;;;;;5048716;28;20044;-72
2022/12/23 08:41:15;;;;;;;98.82;20.45;;;;;;;;;;5027052;28;20095;-73
2022/12/23 08:43:41;;;;;;;275.75;32.97;;;;;;;;;;5049357;28;21028;-72
2022/12/23 08:46:07;;;;;;;137.20;28.55;;;;;;;;;;5051975;28;20049;-72
2022/12/23 08:48:34;;;;;;;145.35;27.63;;;;;;;;;;5048312;28;20120;-72
2022/12/23 08:51:05;;;;;;;130.77;24.25;;;;;;;;;;5050821;28;20045;-72
2022/12/23 08:53:31;;;;;;;67.57;21.98;;;;;;;;;;5051282;28;20057;-72
2022/12/23 08:56:00;;;;;;;95.78;21.52;;;;;;;;;;5052036;28;20531;-72
2022/12/23 08:58:26;;;;;;;64.10;19.52;;;;;;;;;;5051637;28;20036;-72
2022/12/23 09:00:52;;;;;;;79.78;22.45;;;;;;;;;;5052169;28;20053;-73
2022/12/23 09:03:18;;;;;;;72.82;21.55;;;;;;;;;;5051363;28;20190;-73
2022/12/23 09:05:44;;;;;;;77.07;23.27;;;;;;;;;;5046912;28;20045;-73
2022/12/23 09:08:10;;;;;;;86.85;23.55;;;;;;;;;;5051522;28;20041;-73
2022/12/23 09:10:46;;;;;;;76.72;23.23;;;;;;;;;;5031007;28;20493;-73
2022/12/23 09:13:12;;;;;;;86.93;23.25;;;;;;;;;;5030828;28;20079;-73
2022/12/23 09:15:45;;;;;;;84.95;20.75;;;;;;;;;;5030884;28;20068;-73
2022/12/23 09:18:11;;;;;;;78.15;20.20;;;;;;;;;;5050475;28;20143;-73
2022/12/23 09:20:37;;;;;;;67.63;18.70;;;;;;;;;;5054376;28;20118;-73
2022/12/23 09:23:04;;;;;;;68.45;17.00;;;;;;;;;;5053910;28;20486;-73
2022/12/23 09:25:30;;;;;;;56.72;16.67;;;;;;;;;;5053648;28;20049;-73
2022/12/23 09:27:56;;;;;;;52.25;16.83;;;;;;;;;;5055156;28;20045;-73
2022/12/23 09:30:22;;;;;;;50.35;16.08;;;;;;;;;;5053100;28;20056;-73
2022/12/23 09:32:48;;;;;;;66.22;17.48;;;;;;;;;;5053011;28;20076;-73
2022/12/23 09:35:14;;;;;;;45.92;16.13;;;;;;;;;;5055699;28;20045;-73
2022/12/23 09:37:40;;;;;;;55.72;16.60;;;;;;;;;;5054796;28;20052;-73
2022/12/23 09:40:08;;;;;;;64.70;17.38;;;;;;;;;;5054727;28;20440;-73
2022/12/23 09:42:50;;;;;;;55.05;16.67;;;;;;;;;;5053842;28;20406;-73
2022/12/23 09:45:31;;;;;;;71.60;18.08;;;;;;;;;;5036637;28;20045;-72
2022/12/23 09:47:57;;;;;;;67.28;17.83;;;;;;;;;;5035724;28;20045;-72
2022/12/23 09:50:26;;;;;;;63.63;17.92;;;;;;;;;;5035557;28;20137;-72
2022/12/23 09:53:00;;;;;;;47.85;16.02;;;;;;;;;;5049839;28;20099;-73
2022/12/23 09:55:45;;;;;;;50.47;17.25;;;;;;;;;;5048674;28;20036;-73
2022/12/23 09:58:31;;;;;;;47.25;17.65;;;;;;;;;;5046653;28;20461;-72
2022/12/23 10:01:04;;;;;;;51.08;17.13;;;;;;;;;;5055489;28;20049;-73
2022/12/23 10:03:36;;;;;;;49.90;17.35;;;;;;;;;;5054391;28;20064;-72
2022/12/23 10:06:06;;;;;;;54.08;17.60;;;;;;;;;;5055207;28;20052;-72
2022/12/23 10:08:38;;;;;;;51.55;17.65;;;;;;;;;;5054911;28;20037;-72
2022/12/23 10:11:12;;;;;;;39.20;15.90;;;;;;;;;;5054858;28;20056;-72
2022/12/23 10:13:43;;;;;;;38.13;15.02;;;;;;;;;;5053925;28;20057;-72
2022/12/23 10:16:14;;;;;;;37.55;15.07;;;;;;;;;;5052677;28;20060;-72
2022/12/23 10:18:40;;;;;;;;;;;;;;;;;;5053399;28;20052;-72
2022/12/23 10:21:16;;;;;;;30.17;13.48;;;;;;;;;;5054266;28;20299;-72
2022/12/23 10:23:46;;;;;;;38.35;15.20;;;;;;;;;;5054917;28;20101;-73
2022/12/23 10:26:16;;;;;;;39.55;15.57;;;;;;;;;;5054788;28;20076;-72
2022/12/23 10:28:43;;;;;;;39.65;16.38;;;;;;;;;;5051472;28;20048;-72
2022/12/23 10:31:14;;;;;;;40.08;15.60;;;;;;;;;;5036009;28;20435;-72
2022/12/23 10:33:47;;;;;;;42.70;15.73;;;;;;;;;;5054749;28;20056;-73
2022/12/23 10:36:33;;;;;;;42.63;16.70;;;;;;;;;;5055032;28;20060;-73
2022/12/23 10:39:06;;;;;;;40.50;16.38;;;;;;;;;;5054362;28;20052;-73
2022/12/23 10:41:46;;;;;;;45.53;16.30;;;;;;;;;;5054613;28;20053;-73
2022/12/23 10:44:17;;;;;;;38.13;15.73;;;;;;;;;;5053984;28;20053;-73
2022/12/23 10:46:59;;;;;;;34.92;15.15;;;;;;;;;;5035530;28;20054;-73
2022/12/23 10:49:28;;;;;;;38.30;15.45;;;;;;;;;;5034469;28;20049;-73
2022/12/23 10:51:59;;;;;;;40.63;16.05;;;;;;;;;;5034503;28;20160;-73
2022/12/23 10:54:28;;;;;;;40.10;15.77;;;;;;;;;;5034385;28;20072;-73
2022/12/23 10:56:54;;;;;;;31.95;13.98;;;;;;;;;;5046938;28;20506;-73
2022/12/23 10:59:22;;;;;;;36.75;15.60;;;;;;;;;;5048477;28;20057;-73
2022/12/23 11:01:52;;;;;;;39.63;15.88;;;;;;;;;;5053467;28;20057;-73
2022/12/23 11:04:21;;;;;;;42.83;16.73;;;;;;;;;;5053151;28;20135;-73
2022/12/23 11:06:49;;;;;;;42.80;17.70;;;;;;;;;;5052188;28;20055;-73
2022/12/23 11:09:20;;;;;;;48.58;19.08;;;;;;;;;;5052918;28;20049;-73
2022/12/23 11:11:57;;;;;;;45.22;19.83;;;;;;;;;;5053879;28;20059;-73
2022/12/23 11:14:32;;;;;;;51.45;19.77;;;;;;;;;;5053874;28;20048;-73
2022/12/23 11:16:58;;;;;;;42.92;18.75;;;;;;;;;;5052201;28;20503;-74
2022/12/23 11:19:24;;;;;;;43.33;18.00;;;;;;;;;;5053859;28;20044;-74
2022/12/23 11:21:54;;;;;;;42.60;17.98;;;;;;;;;;5053882;28;20041;-74
2022/12/23 11:24:21;;;;;;;41.78;17.50;;;;;;;;;;5053770;28;20045;-74
2022/12/23 11:26:49;;;;;;;48.60;19.25;;;;;;;;;;5053334;28;20094;-74
2022/12/23 11:29:28;;;;;;;38.85;15.55;;;;;;;;;;5035843;28;20041;-74
2022/12/23 11:31:55;;;;;;;47.40;17.35;;;;;;;;;;5050558;28;20480;-74
2022/12/23 11:34:22;;;;;;;51.15;18.27;;;;;;;;;;5051011;28;20102;-74
2022/12/23 11:36:56;;;;;;;42.10;17.52;;;;;;;;;;5052942;28;20052;-74
2022/12/23 11:39:43;;;;;;;46.25;17.90;;;;;;;;;;5053139;28;20045;-74
2022/12/23 11:42:15;;;;;;;37.75;15.65;;;;;;;;;;5052179;28;20045;-74
2022/12/23 11:44:43;;;;;;;37.15;16.45;;;;;;;;;;5049111;28;20064;-74
2022/12/23 11:47:21;;;;;;;38.33;15.63;;;;;;;;;;5053035;28;20402;-74
2022/12/23 11:49:52;;;;;;;39.80;16.48;;;;;;;;;;5047910;28;20094;-74
2022/12/23 11:52:19;;;;;;;43.13;16.73;;;;;;;;;;5052362;28;20096;-74
2022/12/23 11:54:50;;;;;;;36.65;15.40;;;;;;;;;;5053136;28;20068;-74
2022/12/23 11:57:18;;;;;;;34.65;15.73;;;;;;;;;;5053030;28;20073;-74
2022/12/23 11:59:49;;;;;;;37.70;16.02;;;;;;;;;;5051496;28;20099;-74
2022/12/23 12:02:40;;;;;;;36.75;16.45;;;;;;;;;;5150534;27;20405;-74
2022/12/23 12:05:16;;;;;;;37.20;16.33;;;;;;;;;;5151353;27;20055;-74
2022/12/23 12:07:45;;;;;;;36.30;16.65;;;;;;;;;;5126012;27;20444;-74
2022/12/23 12:10:31;;;;;;;40.88;17.38;;;;;;;;;;5110099;28;20043;-73
2022/12/23 12:13:05;;;;;;;42.30;17.60;;;;;;;;;;5112641;27;20123;-74
2022/12/23 12:15:34;;;;;;;41.83;17.83;;;;;;;;;;5119409;27;20130;-74
2022/12/23 12:18:01;;;;;;;41.30;18.63;;;;;;;;;;5128924;27;20054;-73
2022/12/23 12:20:33;;;;;;;42.10;19.08;;;;;;;;;;5123960;27;20478;-73
2022/12/23 12:23:03;;;;;;;42.25;18.48;;;;;;;;;;5119045;28;20468;-73
2022/12/23 12:25:39;;;;;;;42.88;17.75;;;;;;;;;;5118365;28;20485;-73
2022/12/23 12:28:07;;;;;;;40.55;18.60;;;;;;;;;;5125838;28;20044;-73
2022/12/23 12:30:38;;;;;;;40.38;18.60;;;;;;;;;;5127056;27;20039;-73
2022/12/23 12:33:30;;;;;;;36.55;17.73;;;;;;;;;;5119422;27;20349;-73
2022/12/23 12:36:15;;;;;;;40.40;18.13;;;;;;;;;;5126046;28;20650;-73
2022/12/23 12:38:42;;;;;;;37.20;18.45;;;;;;;;;;5111521;28;20088;-73
2022/12/23 12:41:15;;;;;;;41.80;19.00;;;;;;;;;;5127333;28;20066;-73
2022/12/23 12:44:01;;;;;;;43.00;20.45;;;;;;;;;;5128979;28;20051;-73
2022/12/23 12:46:32;;;;;;;38.63;17.88;;;;;;;;;;5137038;27;20500;-73
2022/12/23 12:49:04;;;;;;;36.13;17.27;;;;;;;;;;5129747;27;20044;-73
2022/12/23 12:51:36;;;;;;;37.72;18.05;;;;;;;;;;5128624;27;20048;-73
2022/12/23 12:54:22;;;;;;;38.03;18.08;;;;;;;;;;5128014;27;20062;-73
2022/12/23 12:56:49;;;;;;;41.42;18.50;;;;;;;;;;5128710;27;20370;-73
2022/12/23 12:59:16;;;;;;;38.45;19.00;;;;;;;;;;5144504;27;20126;-73
2022/12/23 13:02:01;;;;;;;39.25;18.08;;;;;;;;;;5130481;27;20140;-73
2022/12/23 13:04:34;;;;;;;37.63;17.92;;;;;;;;;;5129587;27;20051;-73
2022/12/23 13:07:03;;;;;;;35.72;17.35;;;;;;;;;;5126463;27;20036;-73
2022/12/23 13:09:46;;;;;;;39.55;18.10;;;;;;;;;;5119539;28;20058;-73
2022/12/23 13:12:16;;;;;;;34.05;16.77;;;;;;;;;;5122055;28;20039;-73
2022/12/23 13:14:51;;;;;;;41.55;18.75;;;;;;;;;;5116146;27;20051;-73
2022/12/23 13:17:36;;;;;;;45.45;19.70;;;;;;;;;;5113598;27;20100;-73
2022/12/23 13:20:15;;;;;;;42.13;20.08;;;;;;;;;;5111834;27;20054;-73
2022/12/23 13:22:44;;;;;;;48.60;20.80;;;;;;;;;;5117052;27;20039;-73
2022/12/23 13:25:25;;;;;;;51.67;20.90;;;;;;;;;;5111964;28;20039;-73
2022/12/23 13:28:15;;;;;;;54.95;21.35;;;;;;;;;;5105154;28;20377;-73
2022/12/23 13:31:04;;;;;;;46.13;19.25;;;;;;;;;;5107151;28;20051;-73
2022/12/23 13:33:40;;;;;;;49.10;19.58;;;;;;;;;;5091355;28;20056;-73
2022/12/23 13:36:20;;;;;;;49.38;20.42;;;;;;;;;;5092549;28;20056;-73
2022/12/23 13:39:03;;;;;;;47.30;19.40;;;;;;;;;;5091845;28;20048;-73
2022/12/23 13:41:38;;;;;;;50.50;20.42;;;;;;;;;;5088433;28;20048;-73
2022/12/23 13:44:04;;;;;;;59.17;20.92;;;;;;;;;;5091692;28;20549;-73
2022/12/23 13:46:49;;;;;;;54.17;20.88;;;;;;;;;;5098943;28;20401;-73
2022/12/23 13:49:27;;;;;;;67.28;21.73;;;;;;;;;;5091042;28;20079;-73
2022/12/23 13:51:53;;;;;;;63.72;19.77;;;;;;;;;;5090589;28;20047;-73
2022/12/23 13:54:24;;;;;;;61.80;21.88;;;;;;;;;;5089467;28;20507;-73
2022/12/23 13:57:00;;;;;;;79.55;24.38;;;;;;;;;;5091606;28;20048;-73
2022/12/23 13:59:36;;;;;;;66.78;22.45;;;;;;;;;;5091431;28;20469;-73
2022/12/23 14:02:02;;;;;;;95.38;25.40;;;;;;;;;;5087748;28;20052;-73
2022/12/23 14:04:31;;;;;;;81.63;23.65;;;;;;;;;;5062765;28;20048;-73
2022/12/23 14:06:58;;;;;;;77.63;23.90;;;;;;;;;;5073597;28;20036;-73
2022/12/23 14:09:43;;;;;;;82.30;24.75;;;;;;;;;;5094189;28;20402;-73
2022/12/23 14:12:11;;;;;;;86.93;26.05;;;;;;;;;;5102242;28;20048;-73
2022/12/23 14:14:40;;;;;;;76.28;23.65;;;;;;;;;;5098765;28;20051;-73
2022/12/23 14:17:11;;;;;;;86.03;25.58;;;;;;;;;;5107981;28;20466;-73
2022/12/23 14:19:47;;;;;;;78.88;23.67;;;;;;;;;;5113983;28;20051;-73
2022/12/23 14:22:16;;;;;;;78.20;24.42;;;;;;;;;;5114936;27;20058;-73
2022/12/23 14:25:00;;;;;;;78.82;23.45;;;;;;;;;;5110182;28;20089;-73
2022/12/23 14:27:35;;;;;;;66.47;21.25;;;;;;;;;;5093549;28;20044;-73
2022/12/23 14:30:10;;;;;;;64.93;20.92;;;;;;;;;;5112221;28;20085;-74
2022/12/23 14:32:51;;;;;;;70.22;21.52;;;;;;;;;;5113625;28;20049;-74
2022/12/23 14:35:29;;;;;;;67.47;21.17;;;;;;;;;;5110101;28;20051;-74
2022/12/23 14:38:07;;;;;;;61.80;20.23;;;;;;;;;;5105664;28;20053;-74
2022/12/23 14:40:36;;;;;;;65.78;20.58;;;;;;;;;;5101383;28;20058;-74
2022/12/23 14:43:21;;;;;;;61.70;20.27;;;;;;;;;;5112004;28;20101;-74
2022/12/23 14:45:58;;;;;;;60.33;21.10;;;;;;;;;;5102926;27;20032;-74
2022/12/23 14:48:33;;;;;;;56.08;19.65;;;;;;;;;;5110473;28;20447;-73
2022/12/23 14:50:59;;;;;;;57.58;19.88;;;;;;;;;;5111382;28;20047;-74